Time;durP1;ratioP1;P1;durP2;ratioP2;P2;SDS_P1;SDS_P2;PMS_P1;PMS_P2;Temp;Humidity;BMP_temperature;BMP_pressure;BME280_temperature;BME280_humidity;BME280_pressure;Samples;Min_cycle;Max_cycle;Signal;HPM_P1;HPM_P2
2021/11/23 00:16:19;;;;;;;60.43;40.30;;;;;;;9.78;77.58;94317.10;834108;71;33147;-80
2021/11/23 00:46:47;;;;;;;;;;;;;;;;;;;;;
2021/11/23 01:31:59;;;;;;;50.20;33.40;;;;;;;9.68;82.41;94329.05;797165;74;31934;-78
2021/11/23 02:01:45;;;;;;;43.52;31.12;;;;;;;9.61;83.43;94317.64;819155;71;32322;-79
2021/11/23 05:31:08;;;;;;;46.90;31.60;;;;;;;10.08;90.17;94402.88;828859;71;30073;-76
2021/11/23 05:46:15;;;;;;;51.83;36.83;;;;;;;10.09;89.99;94407.58;820576;71;32721;-80
2021/11/23 06:01:09;;;;;;;56.75;39.30;;;;;;;10.13;90.16;94430.30;830911;70;29788;-77
2021/11/23 06:16:09;;;;;;;42.23;29.65;;;;;;;10.15;89.96;94446.53;833664;71;30180;-77
2021/11/23 06:31:19;;;;;;;43.55;28.25;;;;;;;10.23;89.79;94458.98;821137;71;30997;-77
2021/11/23 06:46:11;;;;;;;25.90;18.55;;;;;;;10.30;88.85;94476.23;820045;71;29521;-77
2021/11/23 07:01:21;;;;;;;14.78;13.18;;;;;;;10.29;87.35;94495.09;821992;71;32979;-78
2021/11/23 07:16:14;;;;;;;12.13;10.70;;;;;;;10.28;86.33;94520.29;824042;71;32844;-77
2021/11/23 07:31:08;;;;;;;9.33;8.43;;;;;;;10.25;85.26;94551.03;825790;71;29774;-79
2021/11/23 07:46:15;;;;;;;10.13;9.23;;;;;;;10.17;84.97;94562.39;820500;71;33289;-81
2021/11/23 08:01:08;;;;;;;8.75;7.95;;;;;;;10.13;83.94;94586.30;821701;71;29679;-76
2021/11/23 08:16:12;;;;;;;9.40;8.50;;;;;;;10.05;83.28;94604.50;824919;70;31124;-76
2021/11/23 08:31:10;;;;;;;12.37;11.22;;;;;;;9.96;83.78;94609.06;819658;71;30786;-77
2021/11/23 08:46:14;;;;;;;14.93;13.10;;;;;;;9.92;83.52;94615.92;820469;71;33355;-75
2021/11/23 09:16:07;;;;;;;17.15;14.38;;;;;;;;;;819472;71;29783;-77
2021/11/23 09:31:10;;;;;;;19.92;15.98;;;;;;;9.85;83.57;94635.66;818839;71;31111;-75
2021/11/23 09:46:16;;;;;;;17.85;15.93;;;;;;;9.89;83.02;94623.02;826951;71;32856;-76
2021/11/23 10:01:12;;;;;;;17.50;15.40;;;;;;;9.96;83.00;94618.23;832548;70;29706;-77
2021/11/23 10:16:09;;;;;;;16.15;14.45;;;;;;;10.06;82.28;94627.83;819497;71;29559;-77
2021/11/23 10:31:15;;;;;;;15.70;14.03;;;;;;;10.11;81.05;94621.20;825739;71;32735;-75
2021/11/23 11:01:29;;;;;;;17.70;15.15;;;;;;;10.33;79.65;94627.25;827282;71;32851;-79
2021/11/23 11:16:21;;;;;;;16.60;14.18;;;;;;;10.13;79.17;94580.28;825494;71;32741;-79
2021/11/23 11:31:59;;;;;;;19.57;16.45;;;;;;;10.58;78.58;94627.97;787797;73;33086;-79
2021/11/23 11:46:34;;;;;;;16.85;15.13;;;;;;;10.65;77.40;94634.97;819734;70;33002;-79
2021/11/23 12:01:36;;;;;;;13.15;11.85;;;;;;;10.50;76.01;94645.66;818543;71;31645;-77
2021/11/23 12:16:52;;;;;;;12.37;10.78;;;;;;;10.23;76.18;94664.06;820833;70;32813;-78
2021/11/23 12:46:49;;;;;;;;;;;;;;;;;;;;;
2021/11/23 13:01:29;;;;;;;10.38;9.28;;;;;;;9.56;76.63;94683.63;784824;73;33036;-76
2021/11/23 13:17:00;;;;;;;;;;;;;;;;;;;;;
2021/11/23 13:31:35;;;;;;;10.55;9.40;;;;;;;;;;826032;71;32715;-76
2021/11/23 13:46:29;;;;;;;10.98;9.70;;;;;;;;;;827322;71;32781;-79
2021/11/23 14:01:18;;;;;;;11.53;9.85;;;;;;;9.06;77.91;94736.10;820190;70;32820;-78
2021/11/23 14:31:54;;;;;;;11.35;10.20;;;;;;;8.83;78.41;94740.95;799630;73;32940;-77
2021/11/23 14:46:52;;;;;;;10.58;9.48;;;;;;;8.79;78.44;94762.16;823404;70;33543;-78
2021/11/23 15:16:23;;;;;;;8.33;7.40;;;;;;;8.52;78.20;94791.84;793873;74;31585;-78
2021/11/23 15:32:02;;;;;;;;;;;;;;;;;;;;;
2021/11/23 16:16:10;;;;;;;11.55;9.70;;;;;;;8.35;78.77;94833.44;829010;71;30524;-76
2021/11/23 16:31:18;;;;;;;13.75;11.38;;;;;;;8.20;79.59;94851.75;820185;70;32793;-80
2021/11/23 16:46:12;;;;;;;15.32;12.30;;;;;;;8.08;81.49;94871.61;835120;70;28706;-78
2021/11/23 17:01:09;;;;;;;18.77;13.35;;;;;;;7.95;82.39;94888.61;827743;71;29262;-78
2021/11/23 17:16:22;;;;;;;19.12;13.43;;;;;;;7.87;83.50;94900.88;834309;71;31980;-82
2021/11/23 19:01:47;;;;;;;24.20;16.65;;;;;;;7.72;83.93;94961.70;818769;71;32085;-79
2021/11/23 19:16:23;;;;;;;28.02;16.77;;;;;;;7.37;83.53;94927.14;826444;71;32550;-80
2021/11/23 19:31:48;;;;;;;27.05;16.97;;;;;;;7.41;83.52;94944.64;789271;73;33281;-78
2021/11/23 20:01:51;;;;;;;32.80;19.57;;;;;;;7.56;83.58;94979.17;823139;71;32082;-80
2021/11/23 20:16:59;;;;;;;31.68;19.32;;;;;;;7.55;83.78;94982.81;822929;71;32025;-79
2021/11/23 20:31:39;;;;;;;32.88;19.70;;;;;;;7.53;83.55;94999.25;833409;71;31832;-78
2021/11/23 21:31:57;;;;;;;30.70;18.70;;;;;;;7.41;82.66;95023.48;829829;71;32260;-81
2021/11/23 22:31:53;;;;;;;;;;;;;;;;;;;;;
2021/11/23 23:17:10;;;;;;;;;;;;;;;;;;;;;
